Time;durP1;ratioP1;P1;durP2;ratioP2;P2;SDS_P1;SDS_P2;PMS_P1;PMS_P2;Temp;Humidity;BMP_temperature;BMP_pressure;BME280_temperature;BME280_humidity;BME280_pressure;Samples;Min_cycle;Max_cycle;Signal;HPM_P1;HPM_P2
2021/01/29 00:00:38;;;;;;;;;;;7.50;91.50;;;;;;4973454;28;117457;-89
2021/01/29 00:03:08;;;;;;;;;;;7.50;91.70;;;;;;4972636;28;121269;-89
2021/01/29 00:05:38;;;;;;;;;;;7.50;91.70;;;;;;4972650;28;118131;-89
2021/01/29 00:08:03;;;;;;;;;;;7.50;91.70;;;;;;4973311;28;117411;-89
2021/01/29 00:10:29;;;;;;;;;;;7.50;91.50;;;;;;4973896;28;117854;-89
2021/01/29 00:12:55;;;;;;;;;;;7.50;91.50;;;;;;4972514;28;119827;-89
2021/01/29 00:15:21;;;;;;;;;;;7.50;91.50;;;;;;4972737;28;118000;-89
2021/01/29 00:17:47;;;;;;;;;;;7.50;91.40;;;;;;4973205;28;117797;-89
2021/01/29 00:20:13;;;;;;;;;;;7.50;91.40;;;;;;4974339;28;117800;-87
2021/01/29 00:22:39;;;;;;;;;;;7.50;91.30;;;;;;4973061;28;120442;-86
2021/01/29 00:25:06;;;;;;;;;;;7.50;91.40;;;;;;4972326;28;120226;-86
2021/01/29 00:27:31;;;;;;;;;;;7.50;91.60;;;;;;4973168;28;117424;-86
2021/01/29 00:29:57;;;;;;;;;;;7.50;91.50;;;;;;4973852;28;117909;-86
2021/01/29 00:32:22;;;;;;;;;;;7.50;91.70;;;;;;4972127;28;121951;-86
2021/01/29 00:34:47;;;;;;;;;;;7.50;91.50;;;;;;4972156;28;124767;-86
2021/01/29 00:37:13;;;;;;;;;;;7.50;91.50;;;;;;4972699;28;117906;-86
2021/01/29 00:39:38;;;;;;;;;;;7.60;91.50;;;;;;4973825;28;117354;-86
2021/01/29 00:42:04;;;;;;;;;;;7.60;91.50;;;;;;4972361;28;120206;-86
2021/01/29 00:44:29;;;;;;;;;;;7.50;91.60;;;;;;4972104;28;119499;-86
2021/01/29 00:46:55;;;;;;;;;;;7.50;91.20;;;;;;4972624;28;117829;-86
2021/01/29 00:49:20;;;;;;;;;;;7.50;91.30;;;;;;4989655;28;117835;-86
2021/01/29 00:51:46;;;;;;;;;;;7.50;91.50;;;;;;4972369;28;122095;-86
2021/01/29 00:54:11;;;;;;;;;;;7.50;91.20;;;;;;4971993;28;119185;-86
2021/01/29 00:56:37;;;;;;;;;;;7.60;91.40;;;;;;4971932;28;117525;-87
2021/01/29 00:59:02;;;;;;;;;;;7.60;91.20;;;;;;4973108;28;117430;-86
2021/01/29 01:01:28;;;;;;;;;;;7.60;91.20;;;;;;4971803;28;119684;-86
2021/01/29 01:03:53;;;;;;;;;;;7.60;91.40;;;;;;4972091;28;120628;-86
2021/01/29 01:06:19;;;;;;;;;;;7.60;91.20;;;;;;4972828;28;117984;-87
2021/01/29 01:08:44;;;;;;;;;;;7.60;91.30;;;;;;4972781;28;117493;-86
2021/01/29 01:11:10;;;;;;;;;;;7.60;91.30;;;;;;4971643;28;120323;-86
2021/01/29 01:13:35;;;;;;;;;;;7.60;91.30;;;;;;4970943;28;121037;-86
2021/01/29 01:16:01;;;;;;;;;;;7.60;91.20;;;;;;4972452;28;117637;-86
2021/01/29 01:18:26;;;;;;;;;;;7.60;91.30;;;;;;4972524;28;117442;-86
2021/01/29 01:20:52;;;;;;;;;;;7.60;91.20;;;;;;4971603;28;125047;-86
2021/01/29 01:23:17;;;;;;;;;;;7.60;91.00;;;;;;4971735;28;119402;-86
2021/01/29 01:25:43;;;;;;;;;;;7.60;91.20;;;;;;4989425;28;117407;-86
2021/01/29 01:28:08;;;;;;;;;;;7.60;91.10;;;;;;4972559;28;117362;-86
2021/01/29 01:30:35;;;;;;;;;;;7.60;91.20;;;;;;4971647;28;123769;-86
2021/01/29 01:33:00;;;;;;;;;;;7.60;91.30;;;;;;4971423;28;119391;-86
2021/01/29 01:35:26;;;;;;;;;;;7.60;91.30;;;;;;4972377;28;117595;-86
2021/01/29 01:37:51;;;;;;;;;;;7.60;91.10;;;;;;4988828;28;118118;-87
2021/01/29 01:40:18;;;;;;;;;;;7.60;91.50;;;;;;4971480;28;120623;-86
2021/01/29 01:42:43;;;;;;;;;;;7.60;91.30;;;;;;4971425;28;119278;-86
2021/01/29 01:45:24;;;;;;;;;;;7.60;91.10;;;;;;4971998;28;117628;-86
2021/01/29 01:47:50;;;;;;;;;;;7.60;91.40;;;;;;4988782;28;117811;-86
2021/01/29 01:50:35;;;;;;;;;;;7.70;91.60;;;;;;4971144;28;121023;-86
2021/01/29 01:53:01;;;;;;;;;;;7.60;91.40;;;;;;4987195;28;120584;-86
2021/01/29 01:55:29;;;;;;;;;;;7.70;91.20;;;;;;4972483;28;117394;-86
2021/01/29 01:57:54;;;;;;;;;;;7.70;91.20;;;;;;4971876;28;117486;-86
2021/01/29 02:00:21;;;;;;;;;;;7.60;91.10;;;;;;4971056;28;121404;-86
2021/01/29 02:02:48;;;;;;;;;;;7.70;91.30;;;;;;4970620;28;119556;-86
2021/01/29 02:05:15;;;;;;;;;;;7.70;91.40;;;;;;4972187;28;117336;-86
2021/01/29 02:07:42;;;;;;;;;;;7.70;91.20;;;;;;4972246;28;117913;-86
2021/01/29 02:10:08;;;;;;;;;;;7.60;91.30;;;;;;4970821;28;121220;-86
2021/01/29 02:12:34;;;;;;;;;;;7.70;91.20;;;;;;4971012;28;121210;-86
2021/01/29 02:14:59;;;;;;;;;;;7.70;91.20;;;;;;4971573;28;117468;-86
2021/01/29 02:17:34;;;;;;;;;;;7.70;91.20;;;;;;4971819;28;117868;-87
2021/01/29 02:20:12;;;;;;;;;;;7.70;91.20;;;;;;4987222;28;121416;-86
2021/01/29 02:22:50;;;;;;;;;;;7.70;91.20;;;;;;4970813;28;120024;-86
2021/01/29 02:25:18;;;;;;;;;;;7.70;91.20;;;;;;4988195;28;117295;-86
2021/01/29 02:27:54;;;;;;;;;;;7.70;91.10;;;;;;4987557;28;117774;-86
2021/01/29 02:30:38;;;;;;;;;;;7.70;91.10;;;;;;4970613;28;121555;-86
2021/01/29 02:33:07;;;;;;;;;;;7.70;91.20;;;;;;4986954;28;119455;-86
2021/01/29 02:35:32;;;;;;;;;;;7.70;90.90;;;;;;4988288;28;117546;-86
2021/01/29 02:38:16;;;;;;;;;;;7.70;90.90;;;;;;5006016;28;117729;-87
2021/01/29 02:40:45;;;;;;;;;;;7.70;90.80;;;;;;4987129;28;121648;-86
2021/01/29 02:43:22;;;;;;;;;;;7.70;90.90;;;;;;4970849;28;120608;-86
2021/01/29 02:45:48;;;;;;;;;;;7.70;91.00;;;;;;4971516;28;117390;-86
2021/01/29 02:48:22;;;;;;;;;;;7.70;91.00;;;;;;4987917;28;117939;-86
2021/01/29 02:50:49;;;;;;;;;;;7.70;90.90;;;;;;4970324;28;121453;-86
2021/01/29 02:53:41;;;;;;;;;;;7.70;91.10;;;;;;4969881;28;119568;-86
2021/01/29 02:56:17;;;;;;;;;;;7.70;91.10;;;;;;4984224;28;117709;-86
2021/01/29 02:58:51;;;;;;;;;;;7.70;90.70;;;;;;4971303;28;118006;-87
2021/01/29 03:01:21;;;;;;;;;;;7.70;90.90;;;;;;4970268;28;121847;-87
2021/01/29 03:04:06;;;;;;;;;;;7.70;90.90;;;;;;4970534;28;120239;-87
2021/01/29 03:06:44;;;;;;;;;;;7.70;90.70;;;;;;4987323;28;117754;-87
2021/01/29 03:09:22;;;;;;;;;;;7.70;90.80;;;;;;4988229;28;117319;-87
2021/01/29 03:11:54;;;;;;;;;;;7.70;90.60;;;;;;4986865;28;121042;-86
2021/01/29 03:14:19;;;;;;;;;;;7.70;90.80;;;;;;4970264;28;120740;-86
2021/01/29 03:16:47;;;;;;;;;;;7.70;91.10;;;;;;4987199;28;117376;-87
2021/01/29 03:19:12;;;;;;;;;;;7.70;91.20;;;;;;4970498;28;117381;-86
2021/01/29 03:21:39;;;;;;;;;;;7.70;91.10;;;;;;5004519;28;117620;-86
2021/01/29 03:24:09;;;;;;;;;;;7.70;91.20;;;;;;4969984;28;119638;-86
2021/01/29 03:26:36;;;;;;;;;;;7.80;91.10;;;;;;4987388;28;117717;-86
2021/01/29 03:29:03;;;;;;;;;;;7.70;90.90;;;;;;4971290;28;117826;-86
2021/01/29 03:31:29;;;;;;;;;;;7.80;90.90;;;;;;4969947;28;121583;-86
2021/01/29 03:34:06;;;;;;;;;;;7.80;91.00;;;;;;4972151;28;119395;-86
2021/01/29 03:36:33;;;;;;;;;;;7.80;91.00;;;;;;4974196;28;117554;-86
2021/01/29 03:39:06;;;;;;;;;;;7.70;91.00;;;;;;4974516;28;117404;-86
2021/01/29 03:41:33;;;;;;;;;;;7.80;91.10;;;;;;4973046;28;121585;-86
2021/01/29 03:44:17;;;;;;;;;;;7.80;91.20;;;;;;4972648;28;121087;-86
2021/01/29 03:47:01;;;;;;;;;;;7.80;90.90;;;;;;4990095;28;117483;-87
2021/01/29 03:49:45;;;;;;;;;;;7.80;90.90;;;;;;4991025;28;117872;-86
2021/01/29 03:52:16;;;;;;;;;;;7.80;90.80;;;;;;4989588;28;120475;-86
2021/01/29 03:55:00;;;;;;;;;;;7.80;90.80;;;;;;4989831;28;117594;-87
2021/01/29 03:57:45;;;;;;;;;;;7.80;90.70;;;;;;4989948;28;117332;-88
2021/01/29 04:00:22;;;;;;;;;;;7.80;90.70;;;;;;4990558;28;117675;-89
2021/01/29 04:02:54;;;;;;;;;;;7.80;90.80;;;;;;4989298;28;121786;-89
2021/01/29 04:05:21;;;;;;;;;;;7.80;90.70;;;;;;4972406;28;119866;-89
2021/01/29 04:07:50;;;;;;;;;;;7.80;90.80;;;;;;4990209;28;117571;-89
2021/01/29 04:10:17;;;;;;;;;;;7.80;91.00;;;;;;4973074;28;117815;-89
2021/01/29 04:12:53;;;;;;;;;;;7.80;90.80;;;;;;4972423;28;121265;-89
2021/01/29 04:15:31;;;;;;;;;;;7.80;90.80;;;;;;4972487;28;120590;-89
2021/01/29 04:17:58;;;;;;;;;;;7.80;90.90;;;;;;4989677;28;117581;-89
2021/01/29 04:20:25;;;;;;;;;;;7.80;90.80;;;;;;4973570;28;117465;-89
2021/01/29 04:22:52;;;;;;;;;;;7.80;90.80;;;;;;4972169;28;120213;-88
2021/01/29 04:25:29;;;;;;;;;;;7.80;90.90;;;;;;4972208;28;120352;-88
2021/01/29 04:27:57;;;;;;;;;;;7.80;90.70;;;;;;4973022;28;117767;-89
2021/01/29 04:30:24;;;;;;;;;;;7.90;90.60;;;;;;4990279;28;117609;-89
2021/01/29 04:32:50;;;;;;;;;;;7.80;90.70;;;;;;4988947;28;118376;-89
2021/01/29 04:35:17;;;;;;;;;;;7.90;90.90;;;;;;4971413;28;119371;-89
2021/01/29 04:37:43;;;;;;;;;;;7.80;91.40;;;;;;4972593;28;117454;-89
2021/01/29 04:40:35;;;;;;;;;;;7.80;91.30;;;;;;4990056;28;117259;-89
2021/01/29 04:43:07;;;;;;;;;;;7.80;91.10;;;;;;4964827;28;122006;-89
2021/01/29 04:45:32;;;;;;;;;;;7.80;91.20;;;;;;4971813;28;120826;-89
2021/01/29 04:48:12;;;;;;;;;;;7.90;91.30;;;;;;4989156;28;117525;-89
2021/01/29 04:50:43;;;;;;;;;;;7.90;91.10;;;;;;4972894;28;117334;-89
2021/01/29 04:53:15;;;;;;;;;;;7.90;91.20;;;;;;4971804;28;121435;-88
2021/01/29 04:55:59;;;;;;;;;;;7.90;91.30;;;;;;4988427;28;119352;-88
2021/01/29 04:58:28;;;;;;;;;;;7.90;91.40;;;;;;4988748;28;117554;-88
2021/01/29 05:01:21;;;;;;;;;;;7.90;91.60;;;;;;4972236;28;117605;-89
2021/01/29 05:04:05;;;;;;;;;;;7.90;91.20;;;;;;4988201;28;120927;-89
2021/01/29 05:06:43;;;;;;;;;;;7.90;91.40;;;;;;4987915;28;120675;-89
2021/01/29 05:09:11;;;;;;;;;;;7.90;91.10;;;;;;4988870;28;117555;-88
2021/01/29 05:11:53;;;;;;;;;;;7.90;91.10;;;;;;5007506;28;117488;-88
2021/01/29 05:14:22;;;;;;;;;;;7.90;91.10;;;;;;4971496;28;121408;-88
2021/01/29 05:16:59;;;;;;;;;;;7.90;91.20;;;;;;4987631;28;119306;-88
2021/01/29 05:19:43;;;;;;;;;;;7.90;91.00;;;;;;4989286;28;117303;-89
2021/01/29 05:22:25;;;;;;;;;;;7.90;91.10;;;;;;4989221;28;117935;-89
2021/01/29 05:24:54;;;;;;;;;;;7.90;90.80;;;;;;4971354;28;120642;-88
2021/01/29 05:27:38;;;;;;;;;;;7.90;90.90;;;;;;4987160;28;120505;-89
2021/01/29 05:30:03;;;;;;;;;;;7.90;90.80;;;;;;4988628;28;117557;-89
2021/01/29 05:32:48;;;;;;;;;;;7.90;90.90;;;;;;4988934;28;117452;-88
2021/01/29 05:35:32;;;;;;;;;;;7.90;90.80;;;;;;4987686;28;121554;-88
2021/01/29 05:38:09;;;;;;;;;;;7.90;90.70;;;;;;5005593;28;117572;-89
2021/01/29 05:40:44;;;;;;;;;;;7.90;90.80;;;;;;4971771;28;117659;-89
2021/01/29 05:43:19;;;;;;;;;;;7.90;91.00;;;;;;4988673;28;118031;-89
2021/01/29 05:45:49;;;;;;;;;;;7.90;91.00;;;;;;4987636;28;120005;-89
2021/01/29 05:48:21;;;;;;;;;;;8.00;90.80;;;;;;4970828;28;120165;-88
2021/01/29 05:50:58;;;;;;;;;;;7.90;91.00;;;;;;4988476;28;117290;-88
2021/01/29 05:53:33;;;;;;;;;;;7.90;91.30;;;;;;4971624;28;117571;-88
2021/01/29 05:56:01;;;;;;;;;;;7.90;90.80;;;;;;5004594;28;118865;-88
2021/01/29 05:58:40;;;;;;;;;;;7.90;90.70;;;;;;5005107;28;117569;-88
2021/01/29 06:01:38;;;;;;;;;;;7.90;91.10;;;;;;4971534;28;117638;-89
2021/01/29 06:04:04;;;;;;;;;;;8.00;90.80;;;;;;4955145;28;117739;-89
2021/01/29 06:06:44;;;;;;;;;;;7.90;90.80;;;;;;5005159;28;118645;-88
2021/01/29 06:09:17;;;;;;;;;;;8.00;90.90;;;;;;4987243;28;119437;-88
2021/01/29 06:12:02;;;;;;;;;;;8.00;90.90;;;;;;4971842;28;117474;-88
2021/01/29 06:14:28;;;;;;;;;;;7.90;90.90;;;;;;4987721;28;117796;-88
2021/01/29 06:16:53;;;;;;;;;;;8.00;91.10;;;;;;4986531;28;121103;-88
2021/01/29 06:19:22;;;;;;;;;;;7.90;90.70;;;;;;4986801;28;119354;-88
2021/01/29 06:21:57;;;;;;;;;;;7.90;90.90;;;;;;4987828;28;117478;-88
2021/01/29 06:24:41;;;;;;;;;;;8.00;90.70;;;;;;4988197;28;117927;-88
2021/01/29 06:27:12;;;;;;;;;;;8.00;90.90;;;;;;4986672;28;120552;-88
2021/01/29 06:29:58;;;;;;;;;;;8.00;90.60;;;;;;5005109;28;117710;-88
2021/01/29 06:32:32;;;;;;;;;;;8.00;90.90;;;;;;4971397;28;117420;-88
2021/01/29 06:35:10;;;;;;;;;;;8.00;91.30;;;;;;4987830;28;117728;-88
2021/01/29 06:37:55;;;;;;;;;;;8.00;91.70;;;;;;4986604;28;120523;-88
2021/01/29 06:40:21;;;;;;;;;;;8.00;91.50;;;;;;4986900;28;120212;-88
2021/01/29 06:43:05;;;;;;;;;;;8.10;91.70;;;;;;4987634;28;117320;-89
2021/01/29 06:46:09;;;;;;;;;;;8.00;91.60;;;;;;4987187;28;117872;-88
2021/01/29 06:48:53;;;;;;;;;;;8.10;91.50;;;;;;4926530;28;120238;-88
2021/01/29 06:51:33;;;;;;;;;;;8.10;92.10;;;;;;4926695;28;120712;-88
2021/01/29 06:54:14;;;;;;;;;;;8.10;91.60;;;;;;4968045;28;117690;-88
2021/01/29 06:56:46;;;;;;;;;;;8.10;91.30;;;;;;5005253;28;117788;-88
2021/01/29 06:59:37;;;;;;;;;;;8.10;91.70;;;;;;5004590;28;117458;-88
2021/01/29 07:02:03;;;;;;;;;;;8.10;91.70;;;;;;4962360;28;119740;-88
2021/01/29 07:04:47;;;;;;;;;;;8.10;91.80;;;;;;4987592;28;117491;-88
2021/01/29 07:07:32;;;;;;;;;;;8.10;91.80;;;;;;5008448;28;117549;-88
2021/01/29 07:10:16;;;;;;;;;;;8.10;91.80;;;;;;4976478;28;120824;-88
2021/01/29 07:13:05;;;;;;;;;;;8.20;91.60;;;;;;4992456;28;121052;-88
2021/01/29 07:15:39;;;;;;;;;;;8.10;91.70;;;;;;4977273;28;117549;-88
2021/01/29 07:18:24;;;;;;;;;;;8.10;91.50;;;;;;4994177;28;117638;-88
2021/01/29 07:21:03;;;;;;;;;;;8.10;91.40;;;;;;4993034;28;121700;-88
2021/01/29 07:24:01;;;;;;;;;;;8.10;91.60;;;;;;4993132;28;117464;-88
2021/01/29 07:26:30;;;;;;;;;;;8.10;91.70;;;;;;4960038;28;117519;-88
2021/01/29 07:28:58;;;;;;;;;;;8.20;91.60;;;;;;4994152;28;117744;-88
2021/01/29 07:31:43;;;;;;;;;;;8.20;91.40;;;;;;4992748;28;121365;-88
2021/01/29 07:34:21;;;;;;;;;;;8.20;91.50;;;;;;4992795;28;119299;-88
2021/01/29 07:36:55;;;;;;;;;;;8.20;91.60;;;;;;4976866;28;117415;-87
2021/01/29 07:39:29;;;;;;;;;;;8.20;91.20;;;;;;4976711;28;117877;-88
2021/01/29 07:42:00;;;;;;;;;;;8.20;91.20;;;;;;4976109;28;121624;-88
2021/01/29 07:44:32;;;;;;;;;;;8.10;91.40;;;;;;4992691;28;119613;-88
2021/01/29 07:47:09;;;;;;;;;;;8.20;91.40;;;;;;5011407;28;117676;-88
2021/01/29 07:49:37;;;;;;;;;;;8.10;91.30;;;;;;4993757;28;117812;-88
2021/01/29 07:52:23;;;;;;;;;;;8.20;91.30;;;;;;4992703;28;117509;-88
2021/01/29 07:54:53;;;;;;;;;;;8.20;91.40;;;;;;4975989;28;119198;-88
2021/01/29 07:57:29;;;;;;;;;;;8.20;91.30;;;;;;4976290;28;117611;-88
2021/01/29 08:00:04;;;;;;;;;;;8.20;91.40;;;;;;4993775;28;117584;-88
2021/01/29 08:02:35;;;;;;;;;;;8.20;91.20;;;;;;4992312;28;120137;-88
2021/01/29 08:05:08;;;;;;;;;;;8.20;91.20;;;;;;4975282;28;119605;-88
2021/01/29 08:07:34;;;;;;;;;;;8.10;91.10;;;;;;4976469;28;117656;-87
2021/01/29 08:10:02;;;;;;;;;;;8.20;91.20;;;;;;4993740;28;117750;-88
2021/01/29 08:12:27;;;;;;;;;;;8.20;91.30;;;;;;4975985;28;120951;-88
2021/01/29 08:14:56;;;;;;;;;;;8.10;91.20;;;;;;4975862;28;119237;-88
2021/01/29 08:17:40;;;;;;;;;;;8.20;91.20;;;;;;5011034;28;117573;-87
2021/01/29 08:20:11;;;;;;;;;;;8.20;91.40;;;;;;4972846;28;117608;-88
2021/01/29 08:23:03;;;;;;;;;;;8.20;91.40;;;;;;4988829;28;121319;-88
2021/01/29 08:25:48;;;;;;;;;;;8.20;91.50;;;;;;4965307;28;119451;-88
2021/01/29 08:28:32;;;;;;;;;;;8.20;91.10;;;;;;4989335;28;117554;-88
2021/01/29 08:31:10;;;;;;;;;;;8.20;91.40;;;;;;4989682;28;117565;-88
2021/01/29 08:33:38;;;;;;;;;;;8.20;91.10;;;;;;4972096;28;121689;-88
2021/01/29 08:36:04;;;;;;;;;;;8.20;91.30;;;;;;5006842;28;117787;-88
2021/01/29 08:38:34;;;;;;;;;;;8.20;91.40;;;;;;5007433;28;118059;-88
2021/01/29 08:41:03;;;;;;;;;;;8.20;91.20;;;;;;4973178;28;117766;-88
2021/01/29 08:43:45;;;;;;;;;;;8.20;91.30;;;;;;4988532;28;120745;-88
2021/01/29 08:46:43;;;;;;;;;;;8.20;91.10;;;;;;4971961;28;119692;-88
2021/01/29 08:49:21;;;;;;;;;;;8.20;91.20;;;;;;4955720;28;117639;-88
2021/01/29 08:51:49;;;;;;;;;;;8.20;91.40;;;;;;4973283;28;117638;-88
2021/01/29 08:54:23;;;;;;;;;;;8.20;91.40;;;;;;4988241;28;121176;-88
2021/01/29 08:57:08;;;;;;;;;;;8.20;91.30;;;;;;4970568;28;120763;-89
2021/01/29 08:59:34;;;;;;;;;;;8.30;91.30;;;;;;4989208;28;117292;-87
2021/01/29 09:02:02;;;;;;;;;;;8.30;91.10;;;;;;4972934;28;117950;-86
2021/01/29 09:04:32;;;;;;;;;;;8.30;91.50;;;;;;4971816;28;120628;-86
2021/01/29 09:06:59;;;;;;;;;;;8.20;91.10;;;;;;4971302;28;119490;-87
2021/01/29 09:09:25;;;;;;;;;;;8.30;91.30;;;;;;4972628;28;117661;-87
2021/01/29 09:11:51;;;;;;;;;;;8.30;91.20;;;;;;4972797;28;117688;-87
2021/01/29 09:14:26;;;;;;;;;;;8.30;91.10;;;;;;4971785;28;121153;-87
2021/01/29 09:16:59;;;;;;;;;;;8.30;91.50;;;;;;4987800;28;119595;-87
2021/01/29 09:19:25;;;;;;;;;;;8.30;91.40;;;;;;4989182;28;117418;-87
2021/01/29 09:21:52;;;;;;;;;;;8.30;91.30;;;;;;4971813;28;117880;-87
2021/01/29 09:24:18;;;;;;;;;;;8.30;91.30;;;;;;4971354;28;120385;-86
2021/01/29 09:27:03;;;;;;;;;;;8.30;91.20;;;;;;4987431;28;119407;-86
2021/01/29 09:29:29;;;;;;;;;;;8.30;91.00;;;;;;4976889;28;117641;-86
2021/01/29 09:31:56;;;;;;;;;;;8.40;91.20;;;;;;4971560;28;117762;-86
2021/01/29 09:34:23;;;;;;;;;;;8.40;91.00;;;;;;4971120;28;122268;-86
2021/01/29 09:36:50;;;;;;;;;;;8.40;90.80;;;;;;4971152;28;120454;-86
2021/01/29 09:39:30;;;;;;;;;;;8.40;90.80;;;;;;4971967;28;117641;-86
2021/01/29 09:42:02;;;;;;;;;;;8.40;90.80;;;;;;4972324;28;117777;-86
2021/01/29 09:44:32;;;;;;;;;;;8.40;90.90;;;;;;4971192;28;123210;-86
2021/01/29 09:46:59;;;;;;;;;;;8.40;90.90;;;;;;4970191;28;119988;-86
2021/01/29 09:49:25;;;;;;;;;;;8.40;90.80;;;;;;4971755;28;117478;-86
2021/01/29 09:52:17;;;;;;;;;;;8.40;90.70;;;;;;4972472;28;117798;-86
2021/01/29 09:54:48;;;;;;;;;;;8.40;90.50;;;;;;4984203;28;121054;-86
2021/01/29 09:57:17;;;;;;;;;;;8.40;90.40;;;;;;4987244;28;117975;-86
2021/01/29 09:59:57;;;;;;;;;;;8.40;90.30;;;;;;4988801;28;117336;-86
2021/01/29 10:02:24;;;;;;;;;;;8.40;90.30;;;;;;4972035;28;117839;-86
2021/01/29 10:04:56;;;;;;;;;;;8.50;90.20;;;;;;4971005;28;120332;-86
2021/01/29 10:07:22;;;;;;;;;;;8.50;90.10;;;;;;4987073;28;119685;-87
2021/01/29 10:09:56;;;;;;;;;;;8.50;90.00;;;;;;4971668;28;117784;-87
2021/01/29 10:12:23;;;;;;;;;;;8.40;89.90;;;;;;4971351;28;117777;-87
2021/01/29 10:14:58;;;;;;;;;;;8.50;89.90;;;;;;4970593;28;121252;-87
2021/01/29 10:17:37;;;;;;;;;;;8.50;89.70;;;;;;4986913;28;120907;-86
2021/01/29 10:20:10;;;;;;;;;;;8.50;89.60;;;;;;4971575;28;117796;-86
2021/01/29 10:22:38;;;;;;;;;;;8.50;89.40;;;;;;4988485;28;117731;-86
2021/01/29 10:25:13;;;;;;;;;;;8.50;89.10;;;;;;4987067;28;121618;-86
2021/01/29 10:27:42;;;;;;;;;;;8.50;89.00;;;;;;4986636;28;120739;-86
2021/01/29 10:30:10;;;;;;;;;;;8.50;89.00;;;;;;4987929;28;117398;-88
2021/01/29 10:32:36;;;;;;;;;;;8.50;88.70;;;;;;4971596;28;117445;-89
2021/01/29 10:35:11;;;;;;;;;;;8.50;88.40;;;;;;4970251;28;121294;-86
2021/01/29 10:37:39;;;;;;;;;;;8.50;88.50;;;;;;4985987;28;120595;-86
2021/01/29 10:40:23;;;;;;;;;;;8.50;88.30;;;;;;4971186;28;117384;-89
2021/01/29 10:43:00;;;;;;;;;;;8.50;88.00;;;;;;4987411;28;117261;-89
2021/01/29 10:45:34;;;;;;;;;;;8.50;88.00;;;;;;4969951;28;121405;-88
2021/01/29 10:48:03;;;;;;;;;;;8.50;87.90;;;;;;4986499;28;119356;-87
2021/01/29 10:50:29;;;;;;;;;;;8.50;87.90;;;;;;4987720;28;117460;-87
2021/01/29 10:53:13;;;;;;;;;;;8.50;88.00;;;;;;4988006;28;117813;-88
2021/01/29 10:55:39;;;;;;;;;;;8.50;88.00;;;;;;4986634;28;121426;-87
2021/01/29 10:58:21;;;;;;;;;;;8.50;88.10;;;;;;4969652;28;119018;-88
2021/01/29 11:00:50;;;;;;;;;;;8.50;88.20;;;;;;4970930;28;117269;-92
2021/01/29 11:03:17;;;;;;;;;;;8.50;88.30;;;;;;4970634;28;116842;-91
2021/01/29 11:05:44;;;;;;;;;;;8.50;88.00;;;;;;4970594;28;120060;-89
2021/01/29 11:08:21;;;;;;;;;;;8.50;88.00;;;;;;4986457;28;118817;-89
2021/01/29 11:10:50;;;;;;;;;;;8.50;88.00;;;;;;4970806;28;117536;-89
2021/01/29 11:13:21;;;;;;;;;;;8.50;87.90;;;;;;4971528;28;117887;-89
2021/01/29 11:15:53;;;;;;;;;;;8.50;88.00;;;;;;4969932;28;121734;-89
2021/01/29 11:18:30;;;;;;;;;;;8.50;87.70;;;;;;5003998;28;117486;-89
2021/01/29 11:21:10;;;;;;;;;;;8.50;87.80;;;;;;4971115;28;117500;-89
2021/01/29 11:23:39;;;;;;;;;;;8.50;87.50;;;;;;4971123;28;117911;-89
2021/01/29 11:26:09;;;;;;;;;;;8.50;87.40;;;;;;4969621;28;120057;-89
2021/01/29 11:28:43;;;;;;;;;;;8.50;87.60;;;;;;4969033;28;120434;-89
2021/01/29 11:31:15;;;;;;;;;;;8.50;87.20;;;;;;4970379;28;117469;-89
2021/01/29 11:33:41;;;;;;;;;;;8.60;87.40;;;;;;4970864;28;117320;-89
2021/01/29 11:36:20;;;;;;;;;;;8.50;87.20;;;;;;4969663;28;119946;-89
2021/01/29 11:38:48;;;;;;;;;;;8.60;87.50;;;;;;4969579;28;119969;-89
2021/01/29 11:41:17;;;;;;;;;;;8.50;87.50;;;;;;4987030;28;117545;-89
2021/01/29 11:43:44;;;;;;;;;;;8.50;87.10;;;;;;4987239;28;117899;-89
2021/01/29 11:46:12;;;;;;;;;;;8.50;87.30;;;;;;4969563;28;120325;-89
2021/01/29 11:48:46;;;;;;;;;;;8.60;87.00;;;;;;4985980;28;118826;-89
2021/01/29 11:51:12;;;;;;;;;;;8.60;87.00;;;;;;4970123;28;117551;-89
2021/01/29 11:53:39;;;;;;;;;;;8.60;87.00;;;;;;4986973;28;117513;-89
2021/01/29 11:56:17;;;;;;;;;;;8.60;87.10;;;;;;4972852;28;121476;-89
2021/01/29 11:58:51;;;;;;;;;;;8.60;87.10;;;;;;4989061;28;118953;-89
2021/01/29 12:01:19;;;;;;;;;;;8.60;87.00;;;;;;4973502;28;117469;-89
2021/01/29 12:03:48;;;;;;;;;;;8.60;86.90;;;;;;4973702;28;117782;-90
2021/01/29 12:06:18;;;;;;;;;;;8.60;86.90;;;;;;4972677;28;118364;-88
2021/01/29 12:08:47;;;;;;;;;;;8.60;87.10;;;;;;4972783;28;120072;-88
2021/01/29 12:11:14;;;;;;;;;;;8.60;87.10;;;;;;4973399;28;117843;-87
2021/01/29 12:13:48;;;;;;;;;;;8.60;87.20;;;;;;4973635;28;117716;-87
2021/01/29 12:16:21;;;;;;;;;;;8.60;87.00;;;;;;4988969;28;121706;-87
2021/01/29 12:18:47;;;;;;;;;;;8.60;87.50;;;;;;4971758;28;120557;-87
2021/01/29 12:21:16;;;;;;;;;;;8.60;86.90;;;;;;4973429;28;118043;-87
2021/01/29 12:23:43;;;;;;;;;;;8.60;86.90;;;;;;4990248;28;117793;-88
2021/01/29 12:26:10;;;;;;;;;;;8.60;86.60;;;;;;4972351;28;121226;-88
2021/01/29 12:28:53;;;;;;;;;;;8.60;86.00;;;;;;4972081;28;119285;-88
2021/01/29 12:31:33;;;;;;;;;;;8.70;85.70;;;;;;4989804;28;117330;-88
2021/01/29 12:34:17;;;;;;;;;;;8.70;85.90;;;;;;4973617;28;117512;-88
2021/01/29 12:36:42;;;;;;;;;;;8.70;85.60;;;;;;4988572;28;120345;-88
2021/01/29 12:39:10;;;;;;;;;;;8.70;85.70;;;;;;4971625;28;124300;-88
2021/01/29 12:41:44;;;;;;;;;;;8.70;85.10;;;;;;4972942;28;117540;-87
2021/01/29 12:44:09;;;;;;;;;;;8.70;84.60;;;;;;4972736;28;117315;-87
2021/01/29 12:46:36;;;;;;;;;;;8.70;85.30;;;;;;4988346;28;120114;-87
2021/01/29 12:49:09;;;;;;;;;;;8.70;85.50;;;;;;4972104;28;119652;-88
2021/01/29 12:51:36;;;;;;;;;;;8.70;84.90;;;;;;4989278;28;117323;-88
2021/01/29 12:54:06;;;;;;;;;;;8.70;84.90;;;;;;4972963;28;117861;-88
2021/01/29 12:56:38;;;;;;;;;;;8.70;84.50;;;;;;4970968;28;119907;-88
2021/01/29 12:59:04;;;;;;;;;;;8.80;84.30;;;;;;4988603;28;119293;-88
2021/01/29 13:01:35;;;;;;;;;;;8.80;84.70;;;;;;4972822;28;117520;-88
2021/01/29 13:04:20;;;;;;;;;;;8.70;84.40;;;;;;4989583;28;117233;-88
2021/01/29 13:06:48;;;;;;;;;;;8.80;84.60;;;;;;4988137;28;121568;-87
2021/01/29 13:09:32;;;;;;;;;;;8.80;84.70;;;;;;4971362;28;119915;-88
2021/01/29 13:12:02;;;;;;;;;;;8.70;84.90;;;;;;5007066;28;117466;-88
2021/01/29 13:14:33;;;;;;;;;;;8.80;84.70;;;;;;4972780;28;117758;-88
2021/01/29 13:17:09;;;;;;;;;;;8.80;85.00;;;;;;4987906;28;119823;-88
2021/01/29 13:19:36;;;;;;;;;;;8.80;85.20;;;;;;4971536;28;120462;-88
2021/01/29 13:22:17;;;;;;;;;;;8.70;85.50;;;;;;4972465;28;117468;-88
2021/01/29 13:24:42;;;;;;;;;;;8.70;85.70;;;;;;4989106;28;117815;-88
2021/01/29 13:27:10;;;;;;;;;;;8.70;86.10;;;;;;4971160;28;120341;-88
2021/01/29 13:29:36;;;;;;;;;;;8.70;86.30;;;;;;4971203;28;120077;-88
2021/01/29 13:32:04;;;;;;;;;;;8.70;86.40;;;;;;4972281;28;117704;-89
2021/01/29 13:34:30;;;;;;;;;;;8.70;86.40;;;;;;4988266;28;117963;-87
2021/01/29 13:37:14;;;;;;;;;;;8.70;86.50;;;;;;4971100;28;121031;-85
2021/01/29 13:39:41;;;;;;;;;;;8.70;86.70;;;;;;4987846;28;120539;-85
2021/01/29 13:42:30;;;;;;;;;;;8.70;86.60;;;;;;4972034;28;117587;-85
2021/01/29 13:44:57;;;;;;;;;;;8.70;86.90;;;;;;4988892;28;117400;-85
2021/01/29 13:47:27;;;;;;;;;;;8.70;86.80;;;;;;4987691;28;117446;-85
2021/01/29 13:49:52;;;;;;;;;;;8.70;87.10;;;;;;4970983;28;119025;-85
2021/01/29 13:52:22;;;;;;;;;;;8.70;87.00;;;;;;4972082;28;117539;-85
2021/01/29 13:54:48;;;;;;;;;;;8.70;87.40;;;;;;4972159;28;117829;-87
2021/01/29 13:57:18;;;;;;;;;;;8.70;87.20;;;;;;4970077;28;117671;-86
2021/01/29 13:59:45;;;;;;;;;;;8.70;87.10;;;;;;4970424;28;121151;-86
2021/01/29 14:02:29;;;;;;;;;;;8.70;87.10;;;;;;4971486;28;117508;-86
2021/01/29 14:05:04;;;;;;;;;;;8.70;87.10;;;;;;4988585;28;117467;-86
2021/01/29 14:07:29;;;;;;;;;;;8.70;87.00;;;;;;4987029;28;121607;-87
2021/01/29 14:09:55;;;;;;;;;;;8.70;87.20;;;;;;4970658;28;120790;-88
2021/01/29 14:12:41;;;;;;;;;;;8.70;87.20;;;;;;4971530;28;117523;-86
2021/01/29 14:15:27;;;;;;;;;;;8.70;87.30;;;;;;4957726;28;117605;-87
2021/01/29 14:17:58;;;;;;;;;;;8.70;87.50;;;;;;4986459;28;118419;-87
2021/01/29 14:20:29;;;;;;;;;;;8.70;87.50;;;;;;4970878;28;120085;-87
2021/01/29 14:23:08;;;;;;;;;;;8.70;87.60;;;;;;4987833;28;117532;-87
2021/01/29 14:25:33;;;;;;;;;;;8.70;87.90;;;;;;4971328;28;117769;-87
2021/01/29 14:28:11;;;;;;;;;;;8.70;87.60;;;;;;5004707;28;118678;-86
2021/01/29 14:30:39;;;;;;;;;;;8.70;87.70;;;;;;4987188;28;119191;-86
2021/01/29 14:33:17;;;;;;;;;;;8.80;87.40;;;;;;4987945;28;117278;-86
2021/01/29 14:35:48;;;;;;;;;;;8.70;88.30;;;;;;4988452;28;117708;-87
2021/01/29 14:38:17;;;;;;;;;;;8.70;87.90;;;;;;4986421;28;120971;-86
2021/01/29 14:40:42;;;;;;;;;;;8.70;88.40;;;;;;4986536;28;120426;-87
2021/01/29 14:43:20;;;;;;;;;;;8.70;88.20;;;;;;4987992;28;117540;-87
2021/01/29 14:45:51;;;;;;;;;;;8.70;87.90;;;;;;4988056;28;117383;-87